Time;durP1;ratioP1;P1;durP2;ratioP2;P2;SDS_P1;SDS_P2;PMS_P1;PMS_P2;Temp;Humidity;BMP_temperature;BMP_pressure;BME280_temperature;BME280_humidity;BME280_pressure;Samples;Min_cycle;Max_cycle;Signal;HPM_P1;HPM_P2
2022/10/19 00:01:50;;;;;;;;;3.50;3.00;;;;;8.59;82.94;101142.97;5115697;28;8860;-60
2022/10/19 00:04:18;;;;;;;;;1.00;1.00;;;;;8.59;82.81;101145.63;5093477;28;8818;-60
2022/10/19 00:06:46;;;;;;;;;3.75;3.75;;;;;8.58;82.89;101149.22;5095261;28;8818;-62
2022/10/19 00:09:13;;;;;;;;;7.00;6.25;;;;;8.55;83.17;101145.88;5095254;28;8810;-61
2022/10/19 00:11:41;;;;;;;;;6.75;6.75;;;;;8.51;82.56;101145.16;5095539;28;8833;-60
2022/10/19 00:14:09;;;;;;;;;3.00;1.00;;;;;8.49;83.55;101146.19;5095753;28;8838;-62
2022/10/19 00:16:37;;;;;;;;;3.50;2.00;;;;;8.45;83.06;101142.00;5095266;28;8822;-62
2022/10/19 00:19:04;;;;;;;;;3.75;3.75;;;;;8.40;83.11;101147.53;5095028;28;8822;-62
2022/10/19 00:21:32;;;;;;;;;4.00;4.00;;;;;8.34;83.15;101150.50;5094834;28;8814;-60
2022/10/19 00:23:59;;;;;;;;;4.00;3.00;;;;;8.26;83.46;101136.75;5095702;28;8821;-62
2022/10/19 00:26:27;;;;;;;;;5.00;3.00;;;;;8.20;83.61;101139.72;5094932;28;8822;-62
2022/10/19 00:28:55;;;;;;;;;6.00;6.00;;;;;8.17;83.67;101142.50;5095553;28;8822;-60
2022/10/19 00:31:22;;;;;;;;;3.25;3.00;;;;;8.14;83.65;101125.88;5095269;28;8806;-61
2022/10/19 00:33:50;;;;;;;;;5.75;5.75;;;;;8.09;83.59;101122.59;5095097;28;9582;-61
2022/10/19 00:36:18;;;;;;;;;4.50;4.25;;;;;8.04;83.74;101120.19;5094763;28;8834;-60
2022/10/19 00:38:45;;;;;;;;;3.00;3.00;;;;;7.99;83.74;101130.16;5093949;28;8814;-61
2022/10/19 00:41:13;;;;;;;;;4.50;4.00;;;;;7.94;84.27;101126.03;5094169;28;8906;-62
2022/10/19 00:43:41;;;;;;;;;6.00;6.00;;;;;7.91;83.82;101134.97;5094771;28;8838;-60
2022/10/19 00:46:08;;;;;;;;;3.50;3.00;;;;;7.86;83.69;101126.41;5094100;28;8834;-61
2022/10/19 00:48:36;;;;;;;;;3.25;3.00;;;;;7.81;84.14;101130.22;5094757;28;8846;-60
2022/10/19 00:51:04;;;;;;;;;6.00;3.50;;;;;7.78;83.52;101125.94;5094420;28;8814;-61
2022/10/19 00:53:32;;;;;;;;;2.00;1.50;;;;;7.74;84.03;101129.66;5095403;28;8838;-60
2022/10/19 00:56:00;;;;;;;;;3.75;3.75;;;;;7.72;83.77;101128.03;5094514;28;8810;-61
2022/10/19 00:58:27;;;;;;;;;3.00;3.00;;;;;7.67;84.00;101123.88;5094229;28;8879;-60
2022/10/19 01:00:55;;;;;;;;;3.25;3.00;;;;;7.64;84.21;101129.34;5094331;28;8819;-61
2022/10/19 01:03:23;;;;;;;;;5.00;4.00;;;;;7.59;83.90;101132.19;5094978;28;8813;-61
2022/10/19 01:05:51;;;;;;;;;3.75;3.25;;;;;7.54;84.11;101125.41;5094016;28;8802;-59
2022/10/19 01:08:18;;;;;;;;;4.50;3.50;;;;;7.53;84.30;101131.63;5094579;28;8811;-62
2022/10/19 01:10:46;;;;;;;;;2.00;2.00;;;;;7.51;84.20;101130.88;5095227;28;8822;-59
2022/10/19 01:13:13;;;;;;;;;3.00;3.00;;;;;7.53;84.46;101129.00;5094979;28;8835;-61
2022/10/19 01:15:41;;;;;;;;;4.00;4.00;;;;;7.53;84.07;101134.28;5095005;28;8846;-60
2022/10/19 01:18:09;;;;;;;;;7.00;6.00;;;;;7.55;84.10;101133.28;5108567;28;8834;-60
2022/10/19 01:20:36;;;;;;;;;6.75;3.00;;;;;7.58;83.82;101133.13;5098767;28;8806;-60
2022/10/19 01:23:04;;;;;;;;;3.25;3.00;;;;;7.62;83.84;101136.50;5098674;28;8899;-62
2022/10/19 01:25:33;;;;;;;;;6.00;4.50;;;;;7.63;83.88;101132.91;5098175;28;8803;-60
2022/10/19 01:28:01;;;;;;;;;4.00;4.00;;;;;7.64;83.80;101130.19;5098540;28;8902;-60
2022/10/19 01:30:30;;;;;;;;;3.00;3.00;;;;;7.65;83.84;101125.75;5098121;28;8822;-61
2022/10/19 01:32:57;;;;;;;;;3.00;3.00;;;;;7.68;83.56;101130.91;5098410;28;8899;-60
2022/10/19 01:35:25;;;;;;;;;3.25;3.25;;;;;7.66;83.79;101128.31;5098534;28;8903;-61
2022/10/19 01:37:53;;;;;;;;;3.00;3.00;;;;;7.64;83.60;101129.34;5098188;28;8943;-62
2022/10/19 01:40:20;;;;;;;;;3.75;3.75;;;;;7.59;83.75;101118.94;5084650;28;9475;-62
2022/10/19 01:42:48;;;;;;;;;0.00;0.00;;;;;7.57;83.63;101127.94;5108072;28;8901;-60
2022/10/19 01:45:16;;;;;;;;;3.00;3.00;;;;;7.51;83.59;101117.63;5117921;28;8839;-59
2022/10/19 01:47:43;;;;;;;;;2.50;1.00;;;;;7.46;83.74;101116.97;5100041;28;8846;-62
2022/10/19 01:50:11;;;;;;;;;5.50;4.00;;;;;7.44;84.06;101111.72;5096844;28;8914;-60
2022/10/19 01:52:39;;;;;;;;;3.25;1.00;;;;;7.42;83.67;101108.31;5097621;28;8898;-60
2022/10/19 01:55:06;;;;;;;;;3.50;3.00;;;;;7.41;83.67;101106.59;5097357;28;8830;-62
2022/10/19 01:57:34;;;;;;;;;3.00;3.00;;;;;7.41;83.89;101109.25;5097742;28;8906;-62
2022/10/19 02:00:06;;;;;;;;;4.00;3.00;;;;;7.43;83.78;101106.53;5097153;28;8814;-62
2022/10/19 02:02:34;;;;;;;;;2.00;2.00;;;;;7.46;83.82;101107.25;5097076;28;8980;-61
2022/10/19 02:05:02;;;;;;;;;5.00;3.50;;;;;7.48;83.82;101101.84;5096636;28;8818;-62
2022/10/19 02:07:30;;;;;;;;;4.00;3.75;;;;;7.50;83.46;101089.41;5097549;28;8822;-62
2022/10/19 02:09:58;;;;;;;;;2.50;2.50;;;;;7.50;83.74;101092.06;5096962;28;8822;-62
2022/10/19 02:12:25;;;;;;;;;3.75;3.00;;;;;7.51;83.63;101091.13;5097498;28;8834;-62
2022/10/19 02:14:53;;;;;;;;;2.33;2.33;;;;;7.50;83.04;101090.25;5097648;28;8850;-62
2022/10/19 02:17:21;;;;;;;;;1.50;1.50;;;;;7.46;83.13;101093.13;5097710;28;8854;-62
2022/10/19 02:19:49;;;;;;;;;3.50;3.00;;;;;7.43;83.03;101087.97;5096876;28;8849;-62
2022/10/19 02:22:16;;;;;;;;;3.50;3.50;;;;;7.44;83.16;101090.53;5097024;28;8907;-62
2022/10/19 02:24:44;;;;;;;;;1.00;1.00;;;;;7.50;83.74;101089.41;5097163;28;8837;-60
2022/10/19 02:27:11;;;;;;;;;6.00;6.00;;;;;7.52;83.33;101092.81;5096844;28;8802;-62
2022/10/19 02:29:39;;;;;;;;;3.00;3.00;;;;;7.51;83.61;101091.94;5096747;28;8963;-62
2022/10/19 02:32:07;;;;;;;;;7.00;6.50;;;;;7.50;83.47;101100.84;5096991;28;8803;-62
2022/10/19 02:34:35;;;;;;;;;5.00;4.00;;;;;7.47;83.31;101102.78;5097348;28;8879;-61
2022/10/19 02:37:02;;;;;;;;;4.00;3.25;;;;;7.42;83.52;101107.47;5096970;28;8810;-59
2022/10/19 02:39:30;;;;;;;;;4.00;4.00;;;;;7.36;83.55;101098.00;5097285;28;8814;-59
2022/10/19 02:41:58;;;;;;;;;3.50;3.25;;;;;7.32;83.25;101107.03;5097113;28;8896;-58
2022/10/19 02:44:26;;;;;;;;;4.20;3.80;;;;;7.27;83.42;101108.19;5097321;28;8910;-59
2022/10/19 02:46:53;;;;;;;;;3.20;3.00;;;;;7.23;83.67;101107.47;5096707;28;8947;-60
2022/10/19 02:49:21;;;;;;;;;4.00;4.00;;;;;7.20;83.71;101096.16;5096650;28;8818;-59
2022/10/19 02:51:48;;;;;;;;;0.00;0.00;;;;;7.17;83.55;101102.47;5096664;28;8888;-61
2022/10/19 02:54:17;;;;;;;;;6.40;6.40;;;;;7.13;83.79;101095.59;5097361;28;8915;-62
2022/10/19 02:56:44;;;;;;;;;3.80;3.80;;;;;7.12;83.86;101099.16;5096727;28;8860;-59
2022/10/19 02:59:12;;;;;;;;;3.60;3.60;;;;;7.13;83.81;101097.38;5096674;28;8803;-58
2022/10/19 03:01:40;;;;;;;;;3.75;3.75;;;;;7.11;83.39;101099.22;5096301;28;8875;-59
2022/10/19 03:04:07;;;;;;;;;3.20;3.20;;;;;7.11;83.86;101096.56;5096415;28;8907;-59
2022/10/19 03:06:35;;;;;;;;;1.80;1.80;;;;;7.11;83.88;101099.22;5095896;28;8898;-59
2022/10/19 03:09:03;;;;;;;;;3.60;3.00;;;;;7.11;83.74;101102.75;5095211;28;8896;-59
2022/10/19 03:11:30;;;;;;;;;3.60;3.00;;;;;7.11;83.74;101094.81;5095541;28;8898;-59
2022/10/19 03:13:58;;;;;;;;;4.40;3.80;;;;;7.14;83.43;101088.50;5095644;28;8810;-59
2022/10/19 03:16:25;;;;;;;;;5.20;4.00;;;;;7.18;83.63;101088.28;5095744;28;8850;-59
2022/10/19 03:18:53;;;;;;;;;1.80;0.80;;;;;7.25;83.38;101091.50;5095716;28;8806;-59
2022/10/19 03:21:21;;;;;;;;;5.60;4.80;;;;;7.29;83.48;101090.44;5095456;28;8814;-59
2022/10/19 03:23:48;;;;;;;;;4.00;4.00;;;;;7.30;83.68;101090.38;5096453;28;8829;-59
2022/10/19 03:26:16;;;;;;;;;7.80;6.60;;;;;7.30;83.57;101085.06;5095657;28;9861;-59
2022/10/19 03:28:44;;;;;;;;;3.50;3.00;;;;;7.30;83.15;101079.78;5094712;28;8914;-59
2022/10/19 03:31:12;;;;;;;;;3.25;3.25;;;;;7.29;83.67;101083.31;5095183;28;8822;-60
2022/10/19 03:33:39;;;;;;;;;3.75;3.75;;;;;7.25;83.00;101086.19;5095951;28;8806;-59
2022/10/19 03:36:07;;;;;;;;;3.25;3.00;;;;;7.22;83.15;101081.94;5095783;28;8814;-59
2022/10/19 03:38:35;;;;;;;;;3.00;3.00;;;;;7.23;83.51;101090.72;5095786;28;8854;-60
2022/10/19 03:41:03;;;;;;;;;6.00;6.00;;;;;7.23;83.23;101085.41;5096115;28;8814;-59
2022/10/19 03:43:31;;;;;;;;;6.00;5.50;;;;;7.22;83.69;101086.34;5096008;28;8822;-59
2022/10/19 03:45:58;;;;;;;;;5.50;3.50;;;;;7.26;83.30;101083.47;5095925;28;8888;-59
2022/10/19 03:48:26;;;;;;;;;3.20;3.00;;;;;7.27;83.05;101087.00;5096178;28;8902;-59
2022/10/19 03:50:54;;;;;;;;;6.00;4.80;;;;;7.27;83.24;101089.66;5096089;28;8911;-59
2022/10/19 03:53:22;;;;;;;;;5.50;5.50;;;;;7.23;83.34;101086.28;5096128;28;8826;-59
2022/10/19 03:55:50;;;;;;;;;2.80;2.80;;;;;7.20;83.43;101090.88;5096232;28;8825;-59
2022/10/19 03:58:18;;;;;;;;;8.20;7.20;;;;;7.15;83.27;101092.88;5095287;28;8867;-59
2022/10/19 04:00:45;;;;;;;;;6.00;6.00;;;;;7.09;83.42;101090.50;5095797;28;9539;-59
2022/10/19 04:03:13;;;;;;;;;3.60;3.40;;;;;7.06;83.45;101091.50;5095465;28;8826;-59
2022/10/19 04:05:41;;;;;;;;;10.40;9.40;;;;;7.06;83.36;101095.97;5093543;28;8829;-59
2022/10/19 04:08:09;;;;;;;;;6.00;6.00;;;;;7.08;83.50;101091.44;5094870;28;8826;-59
2022/10/19 04:10:36;;;;;;;;;7.40;7.40;;;;;7.09;83.56;101090.50;5094539;28;8857;-59
2022/10/19 04:13:04;;;;;;;;;9.20;8.60;;;;;7.08;83.63;101102.91;5095337;28;8910;-59
2022/10/19 04:15:31;;;;;;;;;7.40;6.60;;;;;7.03;83.55;101089.00;5094760;28;8822;-60
2022/10/19 04:17:59;;;;;;;;;9.40;6.80;;;;;6.94;83.74;101092.09;5095426;28;8802;-61
2022/10/19 04:20:27;;;;;;;;;6.00;4.40;;;;;6.87;83.78;101092.44;5095557;28;8783;-60
2022/10/19 04:22:55;;;;;;;;;3.20;3.00;;;;;6.80;84.18;101085.69;5095866;28;8842;-62
2022/10/19 04:25:22;;;;;;;;;10.00;8.00;;;;;6.73;83.89;101098.38;5095428;28;8826;-61
2022/10/19 04:27:50;;;;;;;;;6.40;6.00;;;;;6.67;84.10;101087.22;5095441;28;10293;-61
2022/10/19 04:30:18;;;;;;;;;6.60;5.20;;;;;6.61;84.35;101095.41;5095520;28;8818;-61
2022/10/19 04:32:46;;;;;;;;;3.20;3.20;;;;;6.55;84.26;101093.91;5095508;28;8839;-61
2022/10/19 04:35:13;;;;;;;;;3.40;3.00;;;;;6.50;84.61;101098.53;5095374;28;8903;-59
2022/10/19 04:37:41;;;;;;;;;7.80;6.20;;;;;6.43;83.99;101094.44;5075400;28;8828;-62
2022/10/19 04:40:09;;;;;;;;;6.60;6.40;;;;;6.38;84.50;101095.59;5089769;28;8806;-61
2022/10/19 04:42:41;;;;;;;;;4.00;3.60;;;;;6.32;84.42;101095.84;5095075;28;8846;-61
2022/10/19 04:45:09;;;;;;;;;7.80;6.80;;;;;6.28;84.17;101096.91;5094970;28;8826;-59
2022/10/19 04:47:37;;;;;;;;;6.00;6.00;;;;;6.25;84.73;101087.34;5095061;28;8822;-62
2022/10/19 04:50:04;;;;;;;;;6.60;4.80;;;;;6.21;84.21;101090.19;5094693;28;8926;-59
2022/10/19 04:52:34;;;;;;;;;5.00;5.00;;;;;6.19;84.76;101089.38;5098822;28;8833;-59
2022/10/19 04:55:01;;;;;;;;;5.60;4.40;;;;;6.17;84.18;101092.09;5098933;28;8834;-59
2022/10/19 04:57:29;;;;;;;;;10.40;9.20;;;;;6.15;84.49;101093.09;5098525;28;8834;-60
2022/10/19 04:59:56;;;;;;;;;7.40;6.40;;;;;6.13;84.58;101092.28;5098055;28;8817;-58
2022/10/19 05:02:25;;;;;;;;;4.20;4.20;;;;;6.12;84.67;101087.91;5098056;28;8891;-61
2022/10/19 05:04:52;;;;;;;;;5.20;5.20;;;;;6.10;84.89;101079.19;5098021;28;8802;-59
2022/10/19 05:07:20;;;;;;;;;7.00;7.00;;;;;6.09;84.22;101081.00;5097076;28;8833;-61
2022/10/19 05:09:48;;;;;;;;;7.00;6.40;;;;;6.07;84.39;101076.69;5098297;28;8818;-61
2022/10/19 05:12:15;;;;;;;;;6.40;6.40;;;;;6.06;84.64;101081.13;5097712;28;8907;-59
2022/10/19 05:14:43;;;;;;;;;7.00;7.00;;;;;6.05;84.73;101082.03;5096596;28;8927;-60
2022/10/19 05:17:11;;;;;;;;;7.00;6.20;;;;;6.03;84.69;101081.25;5096376;28;8834;-61
2022/10/19 05:19:39;;;;;;;;;13.40;12.40;;;;;6.01;84.64;101072.50;5096211;28;8826;-58
2022/10/19 05:22:07;;;;;;;;;13.20;11.80;;;;;6.00;84.21;101073.44;5109653;28;8812;-59
2022/10/19 05:24:35;;;;;;;;;10.60;8.20;;;;;6.01;84.62;101074.31;5116697;28;8840;-58
2022/10/19 05:27:02;;;;;;;;;10.00;9.00;;;;;6.00;84.77;101065.50;5074889;28;8836;-58
2022/10/19 05:29:32;;;;;;;;;13.00;11.60;;;;;6.01;84.44;101064.56;5075192;28;8848;-59
2022/10/19 05:32:00;;;;;;;;;6.60;6.00;;;;;6.03;84.74;101059.25;5076499;28;9522;-60
2022/10/19 05:34:28;;;;;;;;;8.60;8.60;;;;;6.05;84.60;101055.59;5076962;28;8824;-61
2022/10/19 05:36:56;;;;;;;;;11.80;10.80;;;;;6.06;84.30;101057.31;5096281;28;9518;-62
2022/10/19 05:39:23;;;;;;;;;10.60;10.40;;;;;6.07;84.58;101051.09;5097184;28;8818;-62
2022/10/19 05:41:51;;;;;;;;;13.40;13.00;;;;;6.11;84.21;101041.25;5097122;28;8911;-61
2022/10/19 05:44:19;;;;;;;;;12.40;10.80;;;;;6.14;84.34;101057.00;5097305;28;8806;-60
2022/10/19 05:46:47;;;;;;;;;13.40;12.20;;;;;6.15;84.40;101041.03;5096738;28;8861;-61
2022/10/19 05:49:14;;;;;;;;;9.40;9.40;;;;;6.15;83.83;101040.22;5096346;28;8833;-59
2022/10/19 05:51:42;;;;;;;;;9.80;9.60;;;;;6.13;83.50;101045.56;5096212;28;8837;-59
2022/10/19 05:54:10;;;;;;;;;10.20;8.60;;;;;6.12;84.27;101042.97;5095708;28;8826;-59
2022/10/19 05:56:37;;;;;;;;;5.20;4.80;;;;;6.10;84.17;101039.53;5094984;28;8822;-61
2022/10/19 05:59:05;;;;;;;;;8.40;6.20;;;;;6.10;83.93;101044.81;5094854;28;8841;-60
2022/10/19 06:01:33;;;;;;;;;3.40;3.40;;;;;6.09;84.20;101048.41;5093624;28;8810;-58
2022/10/19 06:04:00;;;;;;;;;6.20;6.20;;;;;6.08;83.86;101049.34;5093044;28;8961;-58
2022/10/19 06:06:28;;;;;;;;;4.00;3.00;;;;;6.08;84.01;101039.59;5093934;28;8818;-59
2022/10/19 06:08:57;;;;;;;;;5.20;5.20;;;;;6.07;83.65;101043.16;5094898;28;8821;-60
2022/10/19 06:11:25;;;;;;;;;9.20;9.20;;;;;6.08;83.89;101050.16;5094527;28;8829;-58
2022/10/19 06:13:53;;;;;;;;;8.60;8.00;;;;;6.10;83.56;101060.69;5095777;28;8852;-58
2022/10/19 06:16:21;;;;;;;;;6.00;5.60;;;;;6.12;84.05;101058.81;5095992;28;8838;-58
2022/10/19 06:18:49;;;;;;;;;9.00;8.60;;;;;6.12;83.94;101067.63;5096285;28;8826;-59
2022/10/19 06:21:17;;;;;;;;;6.80;6.80;;;;;6.16;83.36;101071.00;5095831;28;9579;-59
2022/10/19 06:23:45;;;;;;;;;2.60;1.00;;;;;6.18;84.13;101069.16;5095476;28;8833;-60
2022/10/19 06:26:12;;;;;;;;;6.40;6.00;;;;;6.19;83.83;101070.84;5096116;28;8853;-60
2022/10/19 06:28:40;;;;;;;;;4.80;4.80;;;;;6.20;83.40;101072.56;5095555;28;9623;-59
2022/10/19 06:31:08;;;;;;;;;4.00;3.00;;;;;6.22;83.43;101076.88;5093770;28;8822;-59
2022/10/19 06:33:36;;;;;;;;;4.00;3.60;;;;;6.24;83.20;101077.69;5094067;28;8814;-60
2022/10/19 06:36:04;;;;;;;;;3.20;2.60;;;;;6.27;83.53;101076.66;5094468;28;8896;-62
2022/10/19 06:38:32;;;;;;;;;3.60;3.00;;;;;6.28;83.66;101078.38;5094174;28;8828;-62
2022/10/19 06:41:00;;;;;;;;;4.60;4.60;;;;;6.30;83.25;101076.56;5093036;28;8817;-61
2022/10/19 06:43:28;;;;;;;;;6.00;6.00;;;;;6.36;83.37;101078.94;5094331;28;8822;-58
2022/10/19 06:45:56;;;;;;;;;5.60;4.80;;;;;6.42;83.23;101084.81;5095009;28;8822;-60
2022/10/19 06:48:24;;;;;;;;;8.40;7.00;;;;;6.50;83.09;101068.56;5095684;28;8837;-59
2022/10/19 06:50:52;;;;;;;;;6.20;6.00;;;;;6.58;82.75;101074.38;5096019;28;9606;-60
2022/10/19 06:53:20;;;;;;;;;5.20;4.80;;;;;6.66;83.02;101069.63;5095300;28;8806;-58
2022/10/19 06:55:47;;;;;;;;;5.80;4.80;;;;;6.72;82.38;101072.84;5093995;28;8830;-59
2022/10/19 06:58:15;;;;;;;;;7.80;6.00;;;;;6.80;82.81;101078.63;5094080;28;8834;-59
2022/10/19 07:00:43;;;;;;;;;5.80;3.00;;;;;6.86;82.30;101069.53;5093718;28;8829;-60
2022/10/19 07:03:11;;;;;;;;;6.00;5.20;;;;;6.91;82.31;101070.19;5094154;28;8813;-59
2022/10/19 07:05:39;;;;;;;;;4.20;3.80;;;;;6.95;82.47;101069.97;5094494;28;8948;-61
2022/10/19 07:08:07;;;;;;;;;6.00;6.00;;;;;6.97;81.86;101069.91;5094228;28;8814;-61
2022/10/19 07:10:34;;;;;;;;;3.60;3.60;;;;;7.02;82.21;101078.47;5094467;28;8960;-59
2022/10/19 07:13:03;;;;;;;;;1.40;1.40;;;;;7.06;82.08;101080.06;5095387;28;8850;-61
2022/10/19 07:15:31;;;;;;;;;5.20;4.80;;;;;7.08;82.31;101071.13;5094406;28;8825;-59
2022/10/19 07:17:58;;;;;;;;;1.00;1.00;;;;;7.10;81.90;101074.56;5094218;28;8821;-60
2022/10/19 07:20:26;;;;;;;;;4.00;4.00;;;;;7.17;81.73;101069.81;5093219;28;8818;-58
2022/10/19 07:22:54;;;;;;;;;6.00;6.00;;;;;7.25;81.76;101075.59;5093715;28;9534;-60
2022/10/19 07:25:22;;;;;;;;;4.80;4.80;;;;;7.35;81.82;101075.09;5094021;28;8850;-61
2022/10/19 07:27:50;;;;;;;;;6.80;4.80;;;;;7.41;81.28;101074.78;5093905;28;8907;-58
2022/10/19 07:30:19;;;;;;;;;4.00;4.00;;;;;7.47;81.57;101076.28;5093418;28;8972;-59
2022/10/19 07:32:47;;;;;;;;;9.20;6.60;;;;;7.51;81.27;101064.59;5093766;28;8837;-59
2022/10/19 07:35:16;;;;;;;;;6.00;4.80;;;;;7.53;81.37;101071.56;5093744;28;8849;-58
2022/10/19 07:37:44;;;;;;;;;2.00;2.00;;;;;7.60;81.29;101069.44;5094186;28;8814;-59
2022/10/19 07:40:12;;;;;;;;;5.00;4.00;;;;;7.69;80.65;101070.69;5093238;28;8825;-61
2022/10/19 07:42:40;;;;;;;;;7.00;7.00;;;;;7.82;80.71;101065.63;5094251;28;8822;-60
2022/10/19 07:45:07;;;;;;;;;7.50;6.75;;;;;7.94;80.80;101065.03;5094377;28;8816;-61
2022/10/19 07:47:35;;;;;;;;;4.00;4.00;;;;;8.04;80.71;101060.97;5094266;28;8857;-62
2022/10/19 07:50:04;;;;;;;;;6.50;6.00;;;;;8.16;80.79;101061.22;5094080;28;8830;-59
2022/10/19 07:52:32;;;;;;;;;4.50;4.00;;;;;8.25;80.24;101049.28;5093052;28;8830;-61
2022/10/19 07:55:03;;;;;;;;;9.50;8.00;;;;;8.37;80.08;101044.19;5093079;28;8837;-60
2022/10/19 07:57:31;;;;;;;;;7.00;6.50;;;;;8.47;79.83;101050.72;5093337;28;8826;-61
2022/10/19 07:59:59;;;;;;;;;8.00;6.25;;;;;8.60;79.41;101054.41;5093035;28;8830;-62
2022/10/19 08:02:27;;;;;;;;;10.50;9.25;;;;;8.73;79.90;101060.78;5093010;28;8849;-61
2022/10/19 08:05:15;;;;;;;;;12.00;9.75;;;;;8.92;79.75;101052.69;5092733;28;8844;-61
2022/10/19 08:07:45;;;;;;;;;9.75;7.00;;;;;9.12;79.22;101053.28;5093401;28;8810;-59
2022/10/19 08:10:13;;;;;;;;;5.50;3.50;;;;;9.39;78.29;101062.38;5094091;28;8826;-60
2022/10/19 08:12:41;;;;;;;;;8.00;5.00;;;;;9.65;78.05;101059.06;5093337;28;8869;-60
2022/10/19 08:15:09;;;;;;;;;6.25;6.00;;;;;9.93;78.18;101067.16;5092852;28;9502;-60
2022/10/19 08:17:37;;;;;;;;;4.50;4.50;;;;;10.15;77.34;101066.75;5093137;28;8822;-60
2022/10/19 08:20:05;;;;;;;;;7.00;6.50;;;;;10.33;77.33;101063.84;5092826;28;8821;-60
2022/10/19 08:22:33;;;;;;;;;3.50;3.25;;;;;10.52;76.89;101069.75;5092647;28;8846;-59
2022/10/19 08:25:02;;;;;;;;;8.50;8.50;;;;;10.71;76.82;101065.00;5093204;28;8818;-60
2022/10/19 08:27:29;;;;;;;;;8.50;7.00;;;;;10.92;76.34;101057.50;5096525;28;8836;-61
2022/10/19 08:29:57;;;;;;;;;4.00;4.00;;;;;11.10;76.87;101061.63;5096991;28;8822;-58
2022/10/19 08:32:25;;;;;;;;;12.00;9.25;;;;;11.33;75.92;101058.34;5096174;28;8826;-60
2022/10/19 08:34:53;;;;;;;;;7.00;7.00;;;;;11.62;75.46;101055.53;5097298;28;8838;-60
2022/10/19 08:37:21;;;;;;;;;11.00;8.00;;;;;11.92;75.43;101049.94;5097605;28;8958;-62
2022/10/19 08:40:08;;;;;;;;;7.00;7.00;;;;;12.19;74.88;101056.94;5096414;28;8858;-62
2022/10/19 08:42:36;;;;;;;;;7.00;6.50;;;;;12.34;74.31;101045.19;5096664;28;8824;-61
2022/10/19 08:45:05;;;;;;;;;4.50;4.50;;;;;12.47;74.63;101054.09;5096458;28;8810;-60
2022/10/19 08:47:32;;;;;;;;;7.00;7.00;;;;;12.58;74.29;101051.50;5095065;28;8842;-61
2022/10/19 08:50:01;;;;;;;;;6.50;6.50;;;;;12.73;74.27;101045.06;5095953;28;8826;-59
2022/10/19 08:52:28;;;;;;;;;6.25;5.50;;;;;12.86;73.82;101045.91;5095222;28;8871;-60
2022/10/19 08:55:01;;;;;;;;;3.75;3.75;;;;;12.90;73.51;101052.78;5095676;28;8852;-61
2022/10/19 08:57:30;;;;;;;;;4.50;3.00;;;;;12.86;73.67;101049.47;5096666;28;8814;-60
2022/10/19 08:59:59;;;;;;;;;6.75;6.75;;;;;12.80;73.89;101051.69;5095077;28;8825;-59
2022/10/19 09:02:27;;;;;;;;;6.75;6.75;;;;;12.72;74.88;101054.94;5094868;28;9499;-59
2022/10/19 09:04:55;;;;;;;;;6.75;6.00;;;;;12.68;75.19;101052.59;5095089;28;8850;-60
2022/10/19 09:07:23;;;;;;;;;8.50;7.00;;;;;12.63;74.60;101050.25;5095117;28;8956;-60
2022/10/19 09:09:51;;;;;;;;;7.50;6.50;;;;;12.64;74.85;101035.03;5095596;28;8818;-60
2022/10/19 09:12:19;;;;;;;;;7.50;7.00;;;;;12.65;74.83;101045.63;5095321;28;8861;-59
2022/10/19 09:14:47;;;;;;;;;7.25;6.75;;;;;12.65;75.66;101037.63;5095497;28;8814;-62
2022/10/19 09:17:15;;;;;;;;;7.00;7.00;;;;;12.67;75.14;101034.81;5096091;28;8834;-62
2022/10/19 09:19:43;;;;;;;;;6.00;6.00;;;;;12.69;74.83;101039.09;5096286;28;8818;-60
2022/10/19 09:22:13;;;;;;;;;8.00;8.00;;;;;12.73;75.17;101021.03;5095560;28;8886;-60
2022/10/19 09:24:41;;;;;;;;;6.00;6.00;;;;;12.75;74.73;101025.31;5094662;28;8924;-61
2022/10/19 09:27:09;;;;;;;;;5.75;3.50;;;;;12.82;75.30;101017.69;5094477;28;8834;-60
2022/10/19 09:29:37;;;;;;;;;6.00;4.50;;;;;12.89;75.02;101016.28;5094411;28;8972;-60
2022/10/19 09:32:05;;;;;;;;;7.00;6.00;;;;;12.94;75.04;101011.47;5094430;28;8826;-60
2022/10/19 09:34:33;;;;;;;;;6.25;6.25;;;;;12.98;74.81;101013.84;5093938;28;8818;-60
2022/10/19 09:37:02;;;;;;;;;10.00;9.25;;;;;13.02;75.00;101007.31;5095089;28;8910;-60
2022/10/19 09:39:29;;;;;;;;;9.75;7.50;;;;;13.10;74.53;101012.09;5095633;28;8852;-59
2022/10/19 09:41:57;;;;;;;;;5.00;4.50;;;;;13.16;74.54;101006.31;5095143;28;9519;-60
2022/10/19 09:44:25;;;;;;;;;6.00;6.00;;;;;13.22;74.17;101004.03;5095314;28;8806;-60
2022/10/19 09:46:54;;;;;;;;;3.50;3.00;;;;;13.33;74.12;100996.06;5095080;28;8950;-59
2022/10/19 09:49:22;;;;;;;;;6.00;5.00;;;;;13.53;74.27;100987.41;5096321;28;8822;-59
2022/10/19 09:51:50;;;;;;;;;5.50;4.50;;;;;13.80;73.70;100987.13;5095418;28;8957;-60
2022/10/19 09:54:18;;;;;;;;;2.50;2.50;;;;;14.13;73.13;100984.56;5095054;28;9983;-60
2022/10/19 09:56:46;;;;;;;;;3.75;3.75;;;;;14.64;72.02;100988.53;5094298;28;8826;-59
2022/10/19 09:59:14;;;;;;;;;3.75;3.50;;;;;15.33;70.21;100982.84;5094035;28;8849;-60
2022/10/19 10:01:42;;;;;;;;;1.00;1.00;;;;;16.19;67.70;100967.25;5093258;28;8830;-60
2022/10/19 10:04:10;;;;;;;;;3.00;3.00;;;;;17.12;66.01;100958.91;5093501;28;8953;-60
2022/10/19 10:06:38;;;;;;;;;2.60;2.60;;;;;17.74;64.58;100953.16;5093966;28;8853;-61
2022/10/19 10:09:06;;;;;;;;;3.40;1.40;;;;;18.31;63.63;100955.81;5074394;28;8848;-61
2022/10/19 10:11:34;;;;;;;;;2.20;1.00;;;;;18.67;62.83;100957.66;5080029;28;9499;-62
2022/10/19 10:14:03;;;;;;;;;3.80;3.00;;;;;18.83;62.71;100957.88;5095264;28;8842;-60
2022/10/19 10:16:36;;;;;;;;;1.40;1.00;;;;;18.71;62.93;100959.03;5090934;28;8873;-60
2022/10/19 10:19:04;;;;;;;;;1.00;1.00;;;;;18.36;63.65;100948.97;5094923;28;8852;-61
2022/10/19 10:21:33;;;;;;;;;3.60;3.40;;;;;17.95;64.81;100949.31;5094355;28;8944;-60
2022/10/19 10:24:01;;;;;;;;;3.00;3.00;;;;;17.56;65.92;100950.34;5093987;28;8814;-61
2022/10/19 10:26:29;;;;;;;;;3.00;3.00;;;;;17.24;66.91;100955.09;5094796;28;8818;-60
2022/10/19 10:28:58;;;;;;;;;1.40;1.40;;;;;17.01;67.42;100959.00;5094666;28;8834;-60
2022/10/19 10:31:28;;;;;;;;;1.00;1.00;;;;;16.86;67.71;100957.69;5094689;28;8913;-59
2022/10/19 10:33:56;;;;;;;;;3.00;2.60;;;;;16.69;68.50;100960.19;5094591;28;8834;-60
2022/10/19 10:36:38;;;;;;;;;4.00;3.80;;;;;16.56;68.50;100957.72;5093330;28;8829;-60
2022/10/19 10:39:06;;;;;;;;;3.00;3.00;;;;;16.60;68.19;100953.78;5074282;28;8837;-61
2022/10/19 10:41:34;;;;;;;;;1.80;1.00;;;;;16.67;68.12;100949.56;5077040;28;8920;-60
2022/10/19 10:44:02;;;;;;;;;4.00;3.00;;;;;16.66;68.71;100939.81;5092871;28;8828;-59
2022/10/19 10:46:31;;;;;;;;;3.00;3.00;;;;;16.53;68.42;100941.00;5093926;28;8834;-60
2022/10/19 10:48:59;;;;;;;;;4.80;4.00;;;;;16.43;69.00;100948.19;5093285;28;8822;-60
2022/10/19 10:51:27;;;;;;;;;4.40;4.40;;;;;16.31;69.45;100943.84;5093884;28;8864;-59
2022/10/19 10:53:56;;;;;;;;;3.00;3.00;;;;;16.21;69.73;100942.94;5093951;28;8837;-60
2022/10/19 10:56:24;;;;;;;;;3.00;3.00;;;;;16.15;69.64;100940.78;5094423;28;8932;-61
2022/10/19 10:58:52;;;;;;;;;3.00;3.00;;;;;16.08;69.50;100933.41;5093546;28;8838;-60
2022/10/19 11:01:20;;;;;;;;;3.00;3.00;;;;;16.09;69.26;100930.56;5092507;28;8848;-60
2022/10/19 11:03:48;;;;;;;;;0.60;0.40;;;;;16.13;69.08;100928.47;5093046;28;8840;-61
2022/10/19 11:06:17;;;;;;;;;4.00;3.60;;;;;16.21;68.14;100916.06;5093328;28;8895;-59
2022/10/19 11:08:45;;;;;;;;;2.20;2.20;;;;;16.23;68.01;100917.66;5092964;28;8814;-61
2022/10/19 11:11:14;;;;;;;;;2.60;2.60;;;;;16.20;67.74;100904.44;5093445;28;8838;-62
2022/10/19 11:13:42;;;;;;;;;3.60;3.60;;;;;16.17;67.66;100900.34;5093623;28;8868;-60
2022/10/19 11:16:10;;;;;;;;;3.00;3.00;;;;;16.12;68.03;100899.88;5092925;28;8838;-60
2022/10/19 11:18:38;;;;;;;;;4.80;4.80;;;;;16.05;68.11;100887.97;5092027;28;8944;-60
2022/10/19 11:21:06;;;;;;;;;3.60;3.40;;;;;16.05;68.05;100893.34;5092290;28;9251;-60
2022/10/19 11:23:33;;;;;;;;;2.60;2.60;;;;;16.10;67.84;100891.97;5091685;28;8914;-59
2022/10/19 11:26:02;;;;;;;;;4.00;4.00;;;;;16.17;67.48;100885.09;5092104;28;8907;-59
2022/10/19 11:28:30;;;;;;;;;3.60;3.60;;;;;16.29;67.36;100882.16;5090909;28;8824;-60
2022/10/19 11:30:58;;;;;;;;;3.20;3.00;;;;;16.32;67.82;100879.19;5108767;28;8840;-60
2022/10/19 11:33:26;;;;;;;;;2.40;2.20;;;;;16.39;67.92;100877.69;5107518;28;8822;-59
2022/10/19 11:35:54;;;;;;;;;4.00;4.00;;;;;16.43;67.76;100868.41;5091498;28;8896;-60
2022/10/19 11:38:23;;;;;;;;;3.00;3.00;;;;;16.45;67.58;100865.53;5092233;28;8830;-60
2022/10/19 11:40:56;;;;;;;;;4.00;4.00;;;;;16.49;67.60;100856.22;5092215;28;9781;-60
2022/10/19 11:43:44;;;;;;;;;3.20;3.00;;;;;16.54;66.83;100848.59;5092977;28;8826;-60